sensor_id;sensor_type;location;lat;lon;timestamp;pressure;altitude;pressure_sealevel;temperature;humidity
40992;BME280;29633;49.168;9.848;2023-03-21T00:01:34;97070.91;;;15.06;59.23
40992;BME280;29633;49.168;9.848;2023-03-21T00:04:01;97063.59;;;15.09;59.20
40992;BME280;29633;49.168;9.848;2023-03-21T00:06:26;97063.47;;;15.11;59.20
40992;BME280;29633;49.168;9.848;2023-03-21T00:08:52;97064.44;;;15.10;59.33
40992;BME280;29633;49.168;9.848;2023-03-21T00:11:18;97060.16;;;15.09;59.34
40992;BME280;29633;49.168;9.848;2023-03-21T00:13:43;97059.38;;;15.08;59.34
40992;BME280;29633;49.168;9.848;2023-03-21T00:16:11;97060.16;;;15.09;59.33
40992;BME280;29633;49.168;9.848;2023-03-21T00:18:42;97060.88;;;15.11;59.35
40992;BME280;29633;49.168;9.848;2023-03-21T00:21:16;97052.88;;;15.12;59.19
40992;BME280;29633;49.168;9.848;2023-03-21T00:23:42;97045.03;;;15.12;59.23
40992;BME280;29633;49.168;9.848;2023-03-21T00:26:09;97040.81;;;15.11;59.08
40992;BME280;29633;49.168;9.848;2023-03-21T00:28:36;97046.03;;;15.11;59.16
40992;BME280;29633;49.168;9.848;2023-03-21T00:31:02;97051.25;;;15.11;59.21
40992;BME280;29633;49.168;9.848;2023-03-21T00:33:27;97042.59;;;15.11;59.24
40992;BME280;29633;49.168;9.848;2023-03-21T00:35:54;97037.38;;;15.11;59.21
40992;BME280;29633;49.168;9.848;2023-03-21T00:38:21;97043.53;;;15.10;59.06
40992;BME280;29633;49.168;9.848;2023-03-21T00:40:47;97036.66;;;15.09;59.20
40992;BME280;29633;49.168;9.848;2023-03-21T00:43:12;97032.44;;;15.08;59.20
40992;BME280;29633;49.168;9.848;2023-03-21T00:45:44;97031.59;;;15.07;59.14
40992;BME280;29633;49.168;9.848;2023-03-21T00:48:11;97029.00;;;15.07;59.09
40992;BME280;29633;49.168;9.848;2023-03-21T00:50:37;97026.50;;;15.06;59.31
40992;BME280;29633;49.168;9.848;2023-03-21T00:53:04;97021.59;;;15.03;59.25
40992;BME280;29633;49.168;9.848;2023-03-21T00:55:29;97019.81;;;15.03;59.17
40992;BME280;29633;49.168;9.848;2023-03-21T00:57:55;97018.03;;;15.04;59.14
40992;BME280;29633;49.168;9.848;2023-03-21T01:00:21;97014.06;;;15.00;59.19
40992;BME280;29633;49.168;9.848;2023-03-21T01:02:47;97004.84;;;14.96;59.17
40992;BME280;29633;49.168;9.848;2023-03-21T01:05:26;97003.22;;;14.95;59.13
40992;BME280;29633;49.168;9.848;2023-03-21T01:08:11;97011.03;;;14.95;59.33
40992;BME280;29633;49.168;9.848;2023-03-21T01:10:41;97001.41;;;14.95;59.24
40992;BME280;29633;49.168;9.848;2023-03-21T01:13:07;97002.84;;;14.90;59.11
40992;BME280;29633;49.168;9.848;2023-03-21T01:15:34;97000.53;;;14.87;59.41
40992;BME280;29633;49.168;9.848;2023-03-21T01:18:00;96996.25;;;14.86;59.17
40992;BME280;29633;49.168;9.848;2023-03-21T01:20:26;96999.81;;;14.85;59.29
40992;BME280;29633;49.168;9.848;2023-03-21T01:22:52;97000.66;;;14.85;59.19
40992;BME280;29633;49.168;9.848;2023-03-21T01:25:18;96997.22;;;14.85;59.15
40992;BME280;29633;49.168;9.848;2023-03-21T01:27:44;96999.16;;;14.83;59.20
40992;BME280;29633;49.168;9.848;2023-03-21T01:30:10;96996.16;;;14.77;59.36
40992;BME280;29633;49.168;9.848;2023-03-21T01:32:36;96986.66;;;14.76;59.36
40992;BME280;29633;49.168;9.848;2023-03-21T01:35:02;96985.03;;;14.75;59.38
40992;BME280;29633;49.168;9.848;2023-03-21T01:37:28;96983.38;;;14.74;59.16
40992;BME280;29633;49.168;9.848;2023-03-21T01:39:54;96984.88;;;14.77;59.19
40992;BME280;29633;49.168;9.848;2023-03-21T01:42:19;96982.69;;;14.72;59.19
40992;BME280;29633;49.168;9.848;2023-03-21T01:44:54;96981.06;;;14.71;59.16
40992;BME280;29633;49.168;9.848;2023-03-21T01:47:21;96983.28;;;14.66;59.29
40992;BME280;29633;49.168;9.848;2023-03-21T01:49:49;96986.59;;;14.68;59.21
40992;BME280;29633;49.168;9.848;2023-03-21T01:52:31;96979.41;;;14.70;59.29
40992;BME280;29633;49.168;9.848;2023-03-21T01:54:57;96990.69;;;14.71;59.15
40992;BME280;29633;49.168;9.848;2023-03-21T01:57:29;96981.91;;;14.72;59.16
40992;BME280;29633;49.168;9.848;2023-03-21T01:59:58;96986.72;;;14.67;59.20
40992;BME280;29633;49.168;9.848;2023-03-21T02:02:35;96983.28;;;14.66;59.17
40992;BME280;29633;49.168;9.848;2023-03-21T02:05:01;96981.09;;;14.62;59.30
40992;BME280;29633;49.168;9.848;2023-03-21T02:07:32;96968.88;;;14.62;59.38
40992;BME280;29633;49.168;9.848;2023-03-21T02:10:04;96975.03;;;14.61;59.29
40992;BME280;29633;49.168;9.848;2023-03-21T02:12:32;96969.81;;;14.61;59.23
40992;BME280;29633;49.168;9.848;2023-03-21T02:14:57;96966.56;;;14.59;59.42
40992;BME280;29633;49.168;9.848;2023-03-21T02:17:57;96970.53;;;14.63;59.29
40992;BME280;29633;49.168;9.848;2023-03-21T02:20:45;96963.34;;;14.65;59.19
40992;BME280;29633;49.168;9.848;2023-03-21T02:23:49;96968.56;;;14.65;59.30
40992;BME280;29633;49.168;9.848;2023-03-21T02:37:48;96950.72;;;14.70;59.21
40992;BME280;29633;49.168;9.848;2023-03-21T02:40:36;96948.94;;;14.71;59.36
40992;BME280;29633;49.168;9.848;2023-03-21T02:43:23;96948.94;;;14.71;59.18
40992;BME280;29633;49.168;9.848;2023-03-21T02:46:00;96948.94;;;14.71;59.27
40992;BME280;29633;49.168;9.848;2023-03-21T02:48:32;96954.16;;;14.61;59.38
40992;BME280;29633;49.168;9.848;2023-03-21T02:50:59;96947.63;;;14.57;59.34
40992;BME280;29633;49.168;9.848;2023-03-21T02:53:29;96947.22;;;14.52;59.50
40992;BME280;29633;49.168;9.848;2023-03-21T02:55:56;96959.06;;;14.47;59.68
40992;BME280;29633;49.168;9.848;2023-03-21T02:58:25;96956.16;;;14.40;59.63
40992;BME280;29633;49.168;9.848;2023-03-21T03:00:52;96953.84;;;14.37;59.60
40992;BME280;29633;49.168;9.848;2023-03-21T03:03:21;96952.47;;;14.33;59.74
40992;BME280;29633;49.168;9.848;2023-03-21T03:05:49;96956.06;;;14.32;59.64
40992;BME280;29633;49.168;9.848;2023-03-21T03:14:07;96953.19;;;14.35;59.52
40992;BME280;29633;49.168;9.848;2023-03-21T03:19:26;96940.25;;;14.34;59.58
40992;BME280;29633;49.168;9.848;2023-03-21T03:24:35;96941.19;;;14.32;59.66
40992;BME280;29633;49.168;9.848;2023-03-21T03:27:14;96937.53;;;14.35;59.74
40992;BME280;29633;49.168;9.848;2023-03-21T03:29:43;96938.38;;;14.36;59.59
40992;BME280;29633;49.168;9.848;2023-03-21T03:32:23;96938.22;;;14.37;59.64
40992;BME280;29633;49.168;9.848;2023-03-21T03:34:52;96945.19;;;14.37;59.73
40992;BME280;29633;49.168;9.848;2023-03-21T03:37:23;96941.78;;;14.36;59.76
40992;BME280;29633;49.168;9.848;2023-03-21T03:39:56;96943.41;;;14.37;59.75
40992;BME280;29633;49.168;9.848;2023-03-21T03:42:25;96946.84;;;14.38;59.82
40992;BME280;29633;49.168;9.848;2023-03-21T03:44:53;96942.34;;;14.40;59.82
40992;BME280;29633;49.168;9.848;2023-03-21T03:50:13;96939.16;;;14.46;59.43
40992;BME280;29633;49.168;9.848;2023-03-21T03:52:53;96938.31;;;14.45;59.63
40992;BME280;29633;49.168;9.848;2023-03-21T03:55:21;96931.31;;;14.46;59.85
40992;BME280;29633;49.168;9.848;2023-03-21T03:57:48;96940.09;;;14.45;59.56
40992;BME280;29633;49.168;9.848;2023-03-21T04:00:14;96935.59;;;14.47;59.76
40992;BME280;29633;49.168;9.848;2023-03-21T04:02:41;96936.53;;;14.46;59.56
40992;BME280;29633;49.168;9.848;2023-03-21T04:05:08;96935.06;;;14.43;59.67
40992;BME280;29633;49.168;9.848;2023-03-21T04:07:33;96928.19;;;14.42;59.85
40992;BME280;29633;49.168;9.848;2023-03-21T04:09:59;96922.97;;;14.42;59.56
40992;BME280;29633;49.168;9.848;2023-03-21T04:12:25;96924.63;;;14.43;59.63
40992;BME280;29633;49.168;9.848;2023-03-21T04:14:51;96920.34;;;14.42;59.60
40992;BME280;29633;49.168;9.848;2023-03-21T04:17:17;96917.75;;;14.42;59.71
40992;BME280;29633;49.168;9.848;2023-03-21T04:19:44;96920.47;;;14.41;59.70
40992;BME280;29633;49.168;9.848;2023-03-21T04:22:11;96929.44;;;14.38;59.67
40992;BME280;29633;49.168;9.848;2023-03-21T04:24:38;96918.16;;;14.38;59.48
40992;BME280;29633;49.168;9.848;2023-03-21T04:27:04;96931.22;;;14.38;59.72
40992;BME280;29633;49.168;9.848;2023-03-21T04:29:30;96929.72;;;14.35;59.83
40992;BME280;29633;49.168;9.848;2023-03-21T04:31:56;96928.06;;;14.34;59.68
40992;BME280;29633;49.168;9.848;2023-03-21T04:34:22;96928.06;;;14.34;59.76
40992;BME280;29633;49.168;9.848;2023-03-21T04:36:53;96930.66;;;14.34;59.76
40992;BME280;29633;49.168;9.848;2023-03-21T04:39:20;96935.31;;;14.30;59.66
40992;BME280;29633;49.168;9.848;2023-03-21T04:41:46;96937.38;;;14.27;59.93
40992;BME280;29633;49.168;9.848;2023-03-21T04:44:13;96926.28;;;14.25;59.86
40992;BME280;29633;49.168;9.848;2023-03-21T04:46:40;96928.06;;;14.24;60.00
40992;BME280;29633;49.168;9.848;2023-03-21T04:49:06;96929.97;;;14.22;59.82
40992;BME280;29633;49.168;9.848;2023-03-21T04:51:32;96931.09;;;14.20;59.98
40992;BME280;29633;49.168;9.848;2023-03-21T04:53:57;96937.13;;;14.20;59.79
40992;BME280;29633;49.168;9.848;2023-03-21T04:56:24;96934.38;;;14.22;59.92
40992;BME280;29633;49.168;9.848;2023-03-21T04:58:57;96934.53;;;14.20;59.92
40992;BME280;29633;49.168;9.848;2023-03-21T05:01:23;96929.44;;;14.19;60.02
40992;BME280;29633;49.168;9.848;2023-03-21T05:03:50;96925.22;;;14.18;60.06
40992;BME280;29633;49.168;9.848;2023-03-21T05:06:16;96931.38;;;14.17;59.88
40992;BME280;29633;49.168;9.848;2023-03-21T05:08:42;96932.22;;;14.17;59.97
40992;BME280;29633;49.168;9.848;2023-03-21T05:11:08;96928.06;;;14.15;60.04
40992;BME280;29633;49.168;9.848;2023-03-21T05:13:34;96925.63;;;14.13;59.77
40992;BME280;29633;49.168;9.848;2023-03-21T05:15:59;96926.59;;;14.12;59.90
40992;BME280;29633;49.168;9.848;2023-03-21T05:18:25;96923.69;;;14.15;59.97
40992;BME280;29633;49.168;9.848;2023-03-21T05:20:52;96922.75;;;14.16;60.01
40992;BME280;29633;49.168;9.848;2023-03-21T05:23:21;96918.34;;;14.17;59.94
40992;BME280;29633;49.168;9.848;2023-03-21T05:25:47;96924.38;;;14.17;60.07
40992;BME280;29633;49.168;9.848;2023-03-21T05:28:13;96919.19;;;14.17;59.97
40992;BME280;29633;49.168;9.848;2023-03-21T05:30:43;96917.41;;;14.18;60.03
40992;BME280;29633;49.168;9.848;2023-03-21T05:33:10;96919.84;;;14.19;60.01
40992;BME280;29633;49.168;9.848;2023-03-21T05:35:35;96917.22;;;14.19;60.05
40992;BME280;29633;49.168;9.848;2023-03-21T05:38:01;96919.00;;;14.19;60.04
40992;BME280;29633;49.168;9.848;2023-03-21T05:40:29;96925.22;;;14.18;59.94
40992;BME280;29633;49.168;9.848;2023-03-21T05:42:55;96918.34;;;14.17;59.96
40992;BME280;29633;49.168;9.848;2023-03-21T05:45:21;96918.19;;;14.18;59.89
40992;BME280;29633;49.168;9.848;2023-03-21T05:47:46;96922.59;;;14.18;59.94
40992;BME280;29633;49.168;9.848;2023-03-21T05:50:12;96932.88;;;14.19;59.83
40992;BME280;29633;49.168;9.848;2023-03-21T05:52:38;96926.84;;;14.19;59.94
40992;BME280;29633;49.168;9.848;2023-03-21T05:55:04;96931.09;;;14.20;59.82
40992;BME280;29633;49.168;9.848;2023-03-21T05:57:30;96932.75;;;14.21;59.91
40992;BME280;29633;49.168;9.848;2023-03-21T06:00:00;96930.97;;;14.21;59.90
40992;BME280;29633;49.168;9.848;2023-03-21T06:02:26;96930.16;;;14.21;59.98
40992;BME280;29633;49.168;9.848;2023-03-21T06:04:51;96942.19;;;14.22;60.01
40992;BME280;29633;49.168;9.848;2023-03-21T06:07:17;96933.41;;;14.23;59.87
40992;BME280;29633;49.168;9.848;2023-03-21T06:09:42;96934.25;;;14.23;59.82
40992;BME280;29633;49.168;9.848;2023-03-21T06:12:08;96937.38;;;14.27;59.95
40992;BME280;29633;49.168;9.848;2023-03-21T06:14:34;96936.44;;;14.28;59.91
40992;BME280;29633;49.168;9.848;2023-03-21T06:16:59;96936.97;;;14.32;60.02
40992;BME280;29633;49.168;9.848;2023-03-21T06:19:25;96934.38;;;14.32;60.03
40992;BME280;29633;49.168;9.848;2023-03-21T06:21:51;96939.41;;;14.33;60.15
40992;BME280;29633;49.168;9.848;2023-03-21T06:24:16;96941.63;;;14.38;60.11
40992;BME280;29633;49.168;9.848;2023-03-21T06:26:43;96942.19;;;14.41;60.04
40992;BME280;29633;49.168;9.848;2023-03-21T06:29:09;96941.06;;;14.44;60.21
40992;BME280;29633;49.168;9.848;2023-03-21T06:31:37;96945.19;;;14.46;60.11
40992;BME280;29633;49.168;9.848;2023-03-21T06:34:03;96942.41;;;14.48;60.06
40992;BME280;29633;49.168;9.848;2023-03-21T06:36:28;96952.44;;;14.52;60.04
40992;BME280;29633;49.168;9.848;2023-03-21T06:38:54;96946.81;;;14.57;60.11
40992;BME280;29633;49.168;9.848;2023-03-21T06:41:19;96944.03;;;14.58;60.00
40992;BME280;29633;49.168;9.848;2023-03-21T06:43:45;96940.47;;;14.59;60.16
40992;BME280;29633;49.168;9.848;2023-03-21T06:46:11;96938.25;;;14.64;59.95
40992;BME280;29633;49.168;9.848;2023-03-21T06:48:36;96936.84;;;14.70;60.05
40992;BME280;29633;49.168;9.848;2023-03-21T06:51:03;96935.88;;;14.71;60.13
40992;BME280;29633;49.168;9.848;2023-03-21T06:53:29;96937.66;;;14.70;59.95
40992;BME280;29633;49.168;9.848;2023-03-21T06:55:56;96933.28;;;14.71;59.96
40992;BME280;29633;49.168;9.848;2023-03-21T06:58:22;96938.78;;;14.68;60.06
40992;BME280;29633;49.168;9.848;2023-03-21T07:00:48;96936.84;;;14.70;60.21
40992;BME280;29633;49.168;9.848;2023-03-21T07:03:14;96936.00;;;14.69;60.14
40992;BME280;29633;49.168;9.848;2023-03-21T07:05:40;96937.66;;;14.70;60.22
40992;BME280;29633;49.168;9.848;2023-03-21T07:08:06;96934.75;;;14.73;60.13
40992;BME280;29633;49.168;9.848;2023-03-21T07:10:38;96934.09;;;14.71;60.10
40992;BME280;29633;49.168;9.848;2023-03-21T07:13:04;96932.97;;;14.74;60.09
40992;BME280;29633;49.168;9.848;2023-03-21T07:15:30;96933.13;;;14.72;60.19
40992;BME280;29633;49.168;9.848;2023-03-21T07:17:56;96936.41;;;14.74;60.11
40992;BME280;29633;49.168;9.848;2023-03-21T07:20:22;96942.84;;;14.80;60.20
40992;BME280;29633;49.168;9.848;2023-03-21T07:22:48;96933.22;;;14.81;60.09
40992;BME280;29633;49.168;9.848;2023-03-21T07:25:13;96940.09;;;14.82;60.05
40992;BME280;29633;49.168;9.848;2023-03-21T07:27:41;96945.00;;;14.85;59.97
40992;BME280;29633;49.168;9.848;2023-03-21T07:30:08;96957.78;;;14.88;60.07
40992;BME280;29633;49.168;9.848;2023-03-21T07:32:35;96957.63;;;14.89;59.92
40992;BME280;29633;49.168;9.848;2023-03-21T07:35:02;96942.81;;;14.90;60.00
40992;BME280;29633;49.168;9.848;2023-03-21T07:37:28;96935.50;;;14.93;60.03
40992;BME280;29633;49.168;9.848;2023-03-21T07:39:54;96941.09;;;14.98;59.81
40992;BME280;29633;49.168;9.848;2023-03-21T07:42:20;96933.34;;;15.06;59.87
40992;BME280;29633;49.168;9.848;2023-03-21T07:44:46;96932.47;;;15.15;59.82
40992;BME280;29633;49.168;9.848;2023-03-21T07:47:11;96931.34;;;15.18;59.80
40992;BME280;29633;49.168;9.848;2023-03-21T07:49:37;96935.44;;;15.20;59.86
40992;BME280;29633;49.168;9.848;2023-03-21T07:52:03;96928.44;;;15.21;59.78
40992;BME280;29633;49.168;9.848;2023-03-21T07:54:29;96933.53;;;15.22;59.96
40992;BME280;29633;49.168;9.848;2023-03-21T07:56:55;96933.06;;;15.27;59.80
40992;BME280;29633;49.168;9.848;2023-03-21T07:59:21;96929.38;;;15.30;60.11
40992;BME280;29633;49.168;9.848;2023-03-21T08:01:47;96930.19;;;15.30;60.09
40992;BME280;29633;49.168;9.848;2023-03-21T08:04:13;96933.59;;;15.31;59.99
40992;BME280;29633;49.168;9.848;2023-03-21T08:06:39;96931.81;;;15.31;60.07
40992;BME280;29633;49.168;9.848;2023-03-21T08:09:05;96929.72;;;15.35;60.11
40992;BME280;29633;49.168;9.848;2023-03-21T08:11:30;96931.50;;;15.34;60.16
40992;BME280;29633;49.168;9.848;2023-03-21T08:13:57;96928.75;;;15.36;60.31
40992;BME280;29633;49.168;9.848;2023-03-21T08:16:23;96931.06;;;15.39;60.20
40992;BME280;29633;49.168;9.848;2023-03-21T08:18:49;96934.06;;;15.44;60.22
40992;BME280;29633;49.168;9.848;2023-03-21T08:21:14;96932.94;;;15.46;60.16
40992;BME280;29633;49.168;9.848;2023-03-21T08:23:40;96936.09;;;15.50;60.18
40992;BME280;29633;49.168;9.848;2023-03-21T08:26:06;96936.94;;;15.50;60.29
40992;BME280;29633;49.168;9.848;2023-03-21T08:28:32;96936.94;;;15.50;60.16
40992;BME280;29633;49.168;9.848;2023-03-21T08:30:57;96935.78;;;15.53;60.19
40992;BME280;29633;49.168;9.848;2023-03-21T08:33:23;96931.41;;;15.53;60.31
40992;BME280;29633;49.168;9.848;2023-03-21T08:35:48;96934.00;;;15.53;60.36
40992;BME280;29633;49.168;9.848;2023-03-21T08:38:14;96927.38;;;15.59;60.30
40992;BME280;29633;49.168;9.848;2023-03-21T08:40:41;96924.59;;;15.60;60.22
40992;BME280;29633;49.168;9.848;2023-03-21T08:43:07;96928.56;;;15.64;60.29
40992;BME280;29633;49.168;9.848;2023-03-21T08:45:32;96926.97;;;15.71;60.27
40992;BME280;29633;49.168;9.848;2023-03-21T08:47:58;96927.19;;;15.78;60.11
40992;BME280;29633;49.168;9.848;2023-03-21T08:50:25;96921.06;;;15.87;60.18
40992;BME280;29633;49.168;9.848;2023-03-21T08:52:52;96921.09;;;15.95;59.93
40992;BME280;29633;49.168;9.848;2023-03-21T08:55:18;96923.47;;;16.06;59.92
40992;BME280;29633;49.168;9.848;2023-03-21T08:57:44;96922.88;;;16.12;59.85
40992;BME280;29633;49.168;9.848;2023-03-21T09:00:13;96909.69;;;16.22;59.88
40992;BME280;29633;49.168;9.848;2023-03-21T09:02:40;96916.13;;;16.28;59.85
40992;BME280;29633;49.168;9.848;2023-03-21T09:05:06;96911.22;;;16.33;59.88
40992;BME280;29633;49.168;9.848;2023-03-21T09:07:33;96914.50;;;16.35;59.84
40992;BME280;29633;49.168;9.848;2023-03-21T09:10:04;96914.97;;;16.30;59.90
40992;BME280;29633;49.168;9.848;2023-03-21T09:12:32;96910.19;;;16.25;59.98
40992;BME280;29633;49.168;9.848;2023-03-21T09:14:57;96916.25;;;16.26;59.94
40992;BME280;29633;49.168;9.848;2023-03-21T09:17:23;96915.94;;;16.29;59.77
40992;BME280;29633;49.168;9.848;2023-03-21T09:19:49;96925.13;;;16.33;59.70
40992;BME280;29633;49.168;9.848;2023-03-21T09:22:15;96921.53;;;16.34;59.84
40992;BME280;29633;49.168;9.848;2023-03-21T09:24:45;96919.25;;;16.39;59.71
40992;BME280;29633;49.168;9.848;2023-03-21T09:27:13;96919.69;;;16.52;59.63
40992;BME280;29633;49.168;9.848;2023-03-21T09:29:40;96917.31;;;16.67;59.47
40992;BME280;29633;49.168;9.848;2023-03-21T09:32:08;96916.88;;;16.80;59.42
40992;BME280;29633;49.168;9.848;2023-03-21T09:34:34;96922.78;;;16.90;59.31
40992;BME280;29633;49.168;9.848;2023-03-21T09:37:01;96912.34;;;16.98;59.37
40992;BME280;29633;49.168;9.848;2023-03-21T09:39:28;96916.28;;;17.02;59.43
40992;BME280;29633;49.168;9.848;2023-03-21T09:44:41;96910.72;;;17.05;59.41
40992;BME280;29633;49.168;9.848;2023-03-21T09:47:21;96919.56;;;17.04;59.24
40992;BME280;29633;49.168;9.848;2023-03-21T09:49:55;96909.91;;;17.04;59.34
40992;BME280;29633;49.168;9.848;2023-03-21T09:52:25;96905.00;;;17.09;59.17
40992;BME280;29633;49.168;9.848;2023-03-21T09:54:53;96903.41;;;17.16;59.20
40992;BME280;29633;49.168;9.848;2023-03-21T09:59:58;96902.44;;;17.34;58.89
40992;BME280;29633;49.168;9.848;2023-03-21T10:02:35;96893.78;;;17.49;58.90
40992;BME280;29633;49.168;9.848;2023-03-21T10:05:10;96904.94;;;17.59;58.88
40992;BME280;29633;49.168;9.848;2023-03-21T10:07:40;96897.44;;;17.64;58.98
40992;BME280;29633;49.168;9.848;2023-03-21T10:10:16;96898.56;;;17.78;58.67
40992;BME280;29633;49.168;9.848;2023-03-21T10:12:43;96896.75;;;17.87;58.77
40992;BME280;29633;49.168;9.848;2023-03-21T10:15:09;96887.75;;;17.89;58.77
40992;BME280;29633;49.168;9.848;2023-03-21T10:17:46;96882.31;;;17.99;58.54
40992;BME280;29633;49.168;9.848;2023-03-21T10:20:16;96882.09;;;18.16;58.45
40992;BME280;29633;49.168;9.848;2023-03-21T10:22:43;96873.53;;;18.31;58.42
40992;BME280;29633;49.168;9.848;2023-03-21T10:25:14;96872.88;;;18.37;58.67
40992;BME280;29633;49.168;9.848;2023-03-21T10:27:40;96870.06;;;18.38;58.49
40992;BME280;29633;49.168;9.848;2023-03-21T10:30:06;96870.75;;;18.40;58.57
40992;BME280;29633;49.168;9.848;2023-03-21T10:32:34;96866.31;;;18.41;58.66
40992;BME280;29633;49.168;9.848;2023-03-21T10:35:00;96856.78;;;18.48;58.67
40992;BME280;29633;49.168;9.848;2023-03-21T10:37:28;96858.88;;;18.60;58.42
40992;BME280;29633;49.168;9.848;2023-03-21T10:39:54;96865.06;;;18.67;58.67
40992;BME280;29633;49.168;9.848;2023-03-21T10:42:22;96862.63;;;18.66;58.74
40992;BME280;29633;49.168;9.848;2023-03-21T10:44:53;96857.69;;;18.63;58.86
40992;BME280;29633;49.168;9.848;2023-03-21T10:47:21;96853.59;;;18.68;58.70
40992;BME280;29633;49.168;9.848;2023-03-21T10:49:48;96851.44;;;18.72;58.88
40992;BME280;29633;49.168;9.848;2023-03-21T10:52:18;96846.78;;;18.82;58.56
40992;BME280;29633;49.168;9.848;2023-03-21T10:54:44;96848.66;;;18.96;58.46
40992;BME280;29633;49.168;9.848;2023-03-21T10:57:21;96852.19;;;19.11;58.22
40992;BME280;29633;49.168;9.848;2023-03-21T10:59:58;96843.78;;;19.16;58.41
40992;BME280;29633;49.168;9.848;2023-03-21T11:02:35;96841.91;;;19.25;58.11
40992;BME280;29633;49.168;9.848;2023-03-21T11:05:06;96847.31;;;19.31;58.03
40992;BME280;29633;49.168;9.848;2023-03-21T11:07:34;96840.34;;;19.38;58.06
40992;BME280;29633;49.168;9.848;2023-03-21T11:10:13;96838.34;;;19.40;58.07
40992;BME280;29633;49.168;9.848;2023-03-21T11:12:40;96840.97;;;19.40;58.28
40992;BME280;29633;49.168;9.848;2023-03-21T11:17:56;96841.59;;;19.50;58.38
40992;BME280;29633;49.168;9.848;2023-03-21T11:20:22;96832.34;;;19.54;57.99
40992;BME280;29633;49.168;9.848;2023-03-21T11:22:47;96829.91;;;19.53;58.07
40992;BME280;29633;49.168;9.848;2023-03-21T11:25:25;96823.19;;;19.50;58.11
40992;BME280;29633;49.168;9.848;2023-03-21T11:27:53;96825.19;;;19.48;58.34
40992;BME280;29633;49.168;9.848;2023-03-21T11:30:24;96818.22;;;19.55;58.20
40992;BME280;29633;49.168;9.848;2023-03-21T11:32:55;96809.91;;;19.67;58.20
40992;BME280;29633;49.168;9.848;2023-03-21T11:35:27;96813.72;;;19.79;57.84
40992;BME280;29633;49.168;9.848;2023-03-21T11:37:56;96825.44;;;19.91;57.74
40992;BME280;29633;49.168;9.848;2023-03-21T11:40:30;96807.56;;;20.01;57.77
40992;BME280;29633;49.168;9.848;2023-03-21T11:43:00;96817.03;;;20.10;57.63
40992;BME280;29633;49.168;9.848;2023-03-21T11:47:54;96801.59;;;20.07;57.85
40992;BME280;29633;49.168;9.848;2023-03-21T11:50:46;96800.31;;;20.03;57.94
40992;BME280;29633;49.168;9.848;2023-03-21T11:56:03;96791.97;;;20.14;57.64
40992;BME280;29633;49.168;9.848;2023-03-21T12:07:26;96792.00;;;20.29;57.47
40992;BME280;29633;49.168;9.848;2023-03-21T12:10:25;96784.81;;;20.37;57.34
40992;BME280;29633;49.168;9.848;2023-03-21T12:23:26;96773.94;;;20.76;57.23
40992;BME280;29633;49.168;9.848;2023-03-21T12:26:10;96767.69;;;20.84;57.11
40992;BME280;29633;49.168;9.848;2023-03-21T12:34:31;96756.56;;;21.03;56.70
40992;BME280;29633;49.168;9.848;2023-03-21T12:37:15;96745.19;;;21.02;56.71
40992;BME280;29633;49.168;9.848;2023-03-21T12:39:42;96751.28;;;21.03;56.90
40992;BME280;29633;49.168;9.848;2023-03-21T12:45:02;96744.69;;;20.92;56.79
40992;BME280;29633;49.168;9.848;2023-03-21T12:47:31;96747.50;;;20.91;56.74
40992;BME280;29633;49.168;9.848;2023-03-21T12:50:22;96744.44;;;20.87;56.68
40992;BME280;29633;49.168;9.848;2023-03-21T12:52:53;96740.78;;;20.88;56.79
40992;BME280;29633;49.168;9.848;2023-03-21T12:55:22;96738.97;;;20.89;56.69
40992;BME280;29633;49.168;9.848;2023-03-21T13:00:25;96741.00;;;20.87;56.80
40992;BME280;29633;49.168;9.848;2023-03-21T13:03:04;96739.75;;;20.83;56.87
40992;BME280;29633;49.168;9.848;2023-03-21T13:05:40;96739.75;;;20.83;56.64
40992;BME280;29633;49.168;9.848;2023-03-21T13:08:27;96734.91;;;20.86;56.88
40992;BME280;29633;49.168;9.848;2023-03-21T13:10:55;96736.16;;;20.90;56.85
40992;BME280;29633;49.168;9.848;2023-03-21T13:13:35;96728.69;;;20.94;56.39
40992;BME280;29633;49.168;9.848;2023-03-21T13:24:02;96729.53;;;20.94;56.81
40992;BME280;29633;49.168;9.848;2023-03-21T13:26:38;96732.94;;;20.95;56.69
40992;BME280;29633;49.168;9.848;2023-03-21T13:29:13;96730.97;;;20.97;56.42
40992;BME280;29633;49.168;9.848;2023-03-21T13:31:43;96730.97;;;20.97;56.48
40992;BME280;29633;49.168;9.848;2023-03-21T13:34:09;96722.06;;;20.98;56.86
40992;BME280;29633;49.168;9.848;2023-03-21T13:36:35;96723.66;;;20.99;56.63
40992;BME280;29633;49.168;9.848;2023-03-21T13:39:04;96719.22;;;20.99;56.60
40992;BME280;29633;49.168;9.848;2023-03-21T13:41:37;96714.59;;;21.01;56.28
40992;BME280;29633;49.168;9.848;2023-03-21T13:49:13;96715.31;;;20.95;56.69
40992;BME280;29633;49.168;9.848;2023-03-21T13:59:34;96701.38;;;20.80;56.60
40992;BME280;29633;49.168;9.848;2023-03-21T14:02:29;96704.84;;;20.81;56.61
40992;BME280;29633;49.168;9.848;2023-03-21T14:05:04;96698.56;;;20.82;56.52
40992;BME280;29633;49.168;9.848;2023-03-21T14:07:50;96696.94;;;20.81;56.28
40992;BME280;29633;49.168;9.848;2023-03-21T14:10:21;96697.16;;;20.79;56.42
40992;BME280;29633;49.168;9.848;2023-03-21T14:12:48;96699.13;;;20.77;56.43
40992;BME280;29633;49.168;9.848;2023-03-21T14:17:55;96690.78;;;20.74;56.45
40992;BME280;29633;49.168;9.848;2023-03-21T14:20:31;96694.25;;;20.74;56.34
40992;BME280;29633;49.168;9.848;2023-03-21T14:22:57;96693.69;;;20.79;56.53
40992;BME280;29633;49.168;9.848;2023-03-21T14:25:24;96686.16;;;20.76;56.27
40992;BME280;29633;49.168;9.848;2023-03-21T14:27:56;96686.78;;;20.78;56.25
40992;BME280;29633;49.168;9.848;2023-03-21T14:32:52;96685.16;;;20.77;56.63
40992;BME280;29633;49.168;9.848;2023-03-21T14:35:18;96683.53;;;20.76;56.20
40992;BME280;29633;49.168;9.848;2023-03-21T14:37:45;96681.06;;;20.74;56.49
40992;BME280;29633;49.168;9.848;2023-03-21T14:40:22;96687.53;;;20.72;56.61
40992;BME280;29633;49.168;9.848;2023-03-21T14:42:49;96680.03;;;20.69;56.61
40992;BME280;29633;49.168;9.848;2023-03-21T14:45:17;96683.09;;;20.72;56.21